| time (UTC) | temp F | wind direction | speed MPH | gust MPH | rain 1hr in | rain 24hr in | rain mn in | humidity % | barometer mb |
| 20260507085336 | 29 | 0.0 | 0.0 | 0.00 | 0.00 | 0.00 | 53 | 1012.4 | |
| 20260507084336 | 30 | 0.0 | 0.0 | 0.00 | 0.00 | 0.00 | 51 | 1012.5 | |
| 20260507083316 | 33 | 0.0 | 0.0 | 0.00 | 0.00 | 0.00 | 49 | 1012.5 | |
| 20260507082316 | 33 | 203 | 1.0 | 2.0 | 0.00 | 0.00 | 0.00 | 50 | 1012.6 |
| 20260507081336 | 34 | 0.0 | 0.0 | 0.00 | 0.00 | 0.00 | 49 | 1012.7 | |
| 20260507080316 | 33 | 225 | 2.0 | 4.0 | 0.00 | 0.00 | 0.00 | 50 | 1012.5 |
| 20260507075316 | 33 | 0.0 | 2.0 | 0.00 | 0.00 | 0.00 | 49 | 1012.6 | |
| 20260507074316 | 34 | 0.0 | 2.0 | 0.00 | 0.00 | 0.00 | 48 | 1012.6 | |
| 20260507073316 | 34 | 0.0 | 1.0 | 0.00 | 0.00 | 0.00 | 47 | 1012.6 | |
| 20260507072316 | 35 | 0.0 | 0.0 | 0.00 | 0.00 | 0.00 | 46 | 1012.7 | |
| 20260507071316 | 35 | 0.0 | 0.0 | 0.00 | 0.00 | 0.00 | 46 | 1012.8 | |
| 20260507070316 | 35 | 203 | 1.0 | 2.0 | 0.00 | 0.00 | 0.00 | 45 | 1012.8 |
| 20260507065316 | 36 | 203 | 1.0 | 2.0 | 0.00 | 0.00 | 0.00 | 45 | 1012.9 |
| 20260507064316 | 36 | 203 | 1.0 | 3.0 | 0.00 | 0.00 | 0.00 | 44 | 1013.0 |
| 20260507063316 | 36 | 203 | 1.0 | 1.0 | 0.00 | 0.00 | 0.00 | 44 | 1013.1 |
| 20260507062316 | 36 | 203 | 2.0 | 4.0 | 0.00 | 0.00 | 0.00 | 44 | 1013.1 |
| 20260507061316 | 37 | 203 | 1.0 | 2.0 | 0.00 | 0.00 | 0.00 | 44 | 1013.2 |
| 20260507060315 | 36 | 225 | 1.0 | 5.0 | 0.00 | 0.00 | 0.00 | 44 | 1013.3 |
| 20260507055316 | 36 | 203 | 1.0 | 2.0 | 0.00 | 0.00 | 0.00 | 44 | 1013.1 |
| 20260507054336 | 36 | 203 | 1.0 | 3.0 | 0.00 | 0.00 | 0.00 | 45 | 1013.2 |
| 20260507053316 | 35 | 203 | 2.0 | 4.0 | 0.00 | 0.00 | 0.00 | 45 | 1013.2 |
| 20260507052315 | 34 | 248 | 1.0 | 3.0 | 0.00 | 0.00 | 0.00 | 47 | 1013.2 |
| 20260507051316 | 34 | 0.0 | 0.0 | 0.00 | 0.00 | 0.00 | 48 | 1013.3 | |
| 20260507050336 | 33 | 0.0 | 0.0 | 0.00 | 0.00 | 0.00 | 48 | 1013.3 | |
| 20260507045316 | 33 | 0.0 | 0.0 | 0.00 | 0.00 | 0.00 | 48 | 1013.4 | |
| 20260507044316 | 32 | 0.0 | 0.0 | 0.00 | 0.00 | 0.00 | 50 | 1013.4 | |
| 20260507043316 | 32 | 0.0 | 0.0 | 0.00 | 0.00 | 0.00 | 50 | 1013.4 | |
| 20260507042316 | 32 | 0.0 | 0.0 | 0.00 | 0.00 | 0.00 | 50 | 1013.5 | |
| 20260507041315 | 33 | 0.0 | 0.0 | 0.00 | 0.00 | 0.00 | 49 | 1013.8 | |
| 20260507040316 | 33 | 0.0 | 1.0 | 0.00 | 0.00 | 0.00 | 48 | 1013.9 | |
| 20260507035315 | 34 | 270 | 1.0 | 2.0 | 0.00 | 0.00 | 0.00 | 48 | 1013.9 |
| 20260507034315 | 34 | 0.0 | 1.0 | 0.00 | 0.00 | 0.00 | 47 | 1014.0 | |
| 20260507033316 | 34 | 0.0 | 0.0 | 0.00 | 0.00 | 0.00 | 46 | 1014.2 | |
| 20260507032316 | 35 | 0.0 | 0.0 | 0.00 | 0.00 | 0.00 | 44 | 1014.2 | |
| 20260507031316 | 36 | 0.0 | 0.0 | 0.00 | 0.00 | 0.00 | 43 | 1014.4 | |
| 20260507030316 | 37 | 0.0 | 0.0 | 0.00 | 0.00 | 0.00 | 42 | 1014.4 | |
| 20260507025335 | 37 | 0.0 | 0.0 | 0.00 | 0.00 | 0.00 | 42 | 1014.4 | |
| 20260507024316 | 38 | 0.0 | 0.0 | 0.00 | 0.00 | 0.00 | 41 | 1014.5 | |
| 20260507023315 | 38 | 0.0 | 0.0 | 0.00 | 0.00 | 0.00 | 40 | 1014.4 | |
| 20260507022316 | 39 | 0.0 | 0.0 | 0.00 | 0.00 | 0.00 | 39 | 1014.3 | |
| 20260507021316 | 40 | 0.0 | 0.0 | 0.00 | 0.00 | 0.00 | 37 | 1014.4 | |
| 20260507020315 | 41 | 0.0 | 0.0 | 0.00 | 0.00 | 0.00 | 36 | 1014.6 | |
| 20260507015316 | 42 | 0.0 | 0.0 | 0.00 | 0.00 | 0.00 | 34 | 1014.5 | |
| 20260507014315 | 43 | 0.0 | 0.0 | 0.00 | 0.00 | 0.00 | 33 | 1014.6 | |
| 20260507013316 | 44 | 0.0 | 0.0 | 0.00 | 0.00 | 0.00 | 32 | 1014.6 | |
| 20260507012315 | 45 | 0.0 | 0.0 | 0.00 | 0.00 | 0.00 | 31 | 1014.6 | |
| 20260507011315 | 45 | 0.0 | 1.0 | 0.00 | 0.00 | 0.00 | 31 | 1014.6 | |
| 20260507010315 | 45 | 0.0 | 0.0 | 0.00 | 0.00 | 0.00 | 31 | 1014.7 | |
| 20260507005315 | 45 | 0.0 | 0.0 | 0.00 | 0.00 | 0.00 | 31 | 1014.8 | |
| 20260507004317 | 45 | 0.0 | 1.0 | 0.00 | 0.00 | 0.00 | 30 | 1014.8 | |
| 20260507003317 | 45 | 248 | 3.0 | 4.0 | 0.00 | 0.00 | 0.00 | 30 | 1014.9 |
| 20260507002317 | 45 | 0 | 3.0 | 4.0 | 0.00 | 0.00 | 0.00 | 31 | 1015.0 |
| 20260507001317 | 45 | 293 | 2.0 | 4.0 | 0.00 | 0.00 | 0.00 | 31 | 1015.1 |
| 20260507000317 | 45 | 293 | 3.0 | 5.0 | 0.00 | 0.00 | 0.00 | 32 | 1015.2 |
| 20260506235317 | 45 | 248 | 3.0 | 4.0 | 0.00 | 0.00 | 0.00 | 32 | 1015.3 |
| 20260506234317 | 45 | 270 | 3.0 | 5.0 | 0.00 | 0.00 | 0.00 | 32 | 1015.4 |
| 20260506233337 | 45 | 270 | 2.0 | 6.0 | 0.00 | 0.00 | 0.00 | 32 | 1015.4 |
| 20260506232337 | 45 | 270 | 3.0 | 4.0 | 0.00 | 0.00 | 0.00 | 33 | 1015.6 |
| 20260506231317 | 45 | 248 | 3.0 | 4.0 | 0.00 | 0.00 | 0.00 | 32 | 1015.6 |
| 20260506230315 | 45 | 293 | 6.0 | 10.0 | 0.00 | 0.00 | 0.00 | 32 | 1015.6 |
| 20260506225317 | 45 | 0 | 5.0 | 8.0 | 0.00 | 0.00 | 0.00 | 32 | 1015.7 |
| 20260506224317 | 45 | 0 | 5.0 | 8.0 | 0.00 | 0.00 | 0.00 | 32 | 1015.9 |
| 20260506223317 | 45 | 270 | 5.0 | 9.0 | 0.00 | 0.00 | 0.00 | 34 | 1015.9 |
| 20260506222337 | 45 | 270 | 6.0 | 9.0 | 0.00 | 0.00 | 0.00 | 34 | 1016.0 |
| 20260506221317 | 45 | 270 | 3.0 | 6.0 | 0.00 | 0.00 | 0.00 | 34 | 1016.0 |
| 20260506220317 | 45 | 315 | 4.0 | 7.0 | 0.00 | 0.00 | 0.00 | 34 | 1016.1 |
| 20260506215317 | 45 | 0 | 6.0 | 8.0 | 0.00 | 0.00 | 0.00 | 34 | 1016.0 |
| 20260506214317 | 44 | 0 | 6.0 | 9.0 | 0.00 | 0.00 | 0.00 | 34 | 1016.0 |
| 20260506213317 | 44 | 0 | 6.0 | 11.0 | 0.00 | 0.00 | 0.00 | 35 | 1016.2 |
| 20260506212337 | 44 | 0 | 5.0 | 10.0 | 0.00 | 0.00 | 0.00 | 37 | 1016.5 |
| 20260506211337 | 44 | 293 | 4.0 | 8.0 | 0.00 | 0.00 | 0.00 | 35 | 1016.3 |
| 20260506210317 | 44 | 338 | 4.0 | 5.0 | 0.00 | 0.00 | 0.00 | 35 | 1016.3 |
| 20260506205317 | 44 | 315 | 3.0 | 4.0 | 0.00 | 0.00 | 0.00 | 35 | 1016.2 |
| 20260506204317 | 44 | 270 | 6.0 | 9.0 | 0.00 | 0.00 | 0.00 | 35 | 1016.4 |
| 20260506203317 | 44 | 0 | 4.0 | 8.0 | 0.00 | 0.00 | 0.00 | 37 | 1016.5 |
| 20260506202317 | 44 | 293 | 4.0 | 5.0 | 0.00 | 0.00 | 0.00 | 36 | 1016.6 |
| 20260506201336 | 43 | 0 | 3.0 | 6.0 | 0.00 | 0.00 | 0.00 | 36 | 1016.7 |
| 20260506200317 | 44 | 0 | 4.0 | 5.0 | 0.00 | 0.00 | 0.00 | 35 | 1016.7 |
| 20260506195317 | 44 | 248 | 3.0 | 7.0 | 0.00 | 0.00 | 0.00 | 37 | 1016.7 |
| 20260506194337 | 44 | 293 | 3.0 | 4.0 | 0.00 | 0.00 | 0.00 | 35 | 1016.9 |
| 20260506193316 | 43 | 293 | 3.0 | 5.0 | 0.00 | 0.00 | 0.00 | 36 | 1016.9 |
| 20260506192337 | 43 | 293 | 6.0 | 9.0 | 0.00 | 0.00 | 0.00 | 38 | 1017.1 |
| 20260506191316 | 43 | 0 | 6.0 | 11.0 | 0.00 | 0.00 | 0.00 | 36 | 1017.2 |
| 20260506190317 | 43 | 0 | 5.0 | 7.0 | 0.00 | 0.00 | 0.00 | 37 | 1017.1 |
| 20260506185316 | 43 | 293 | 4.0 | 7.0 | 0.00 | 0.00 | 0.00 | 37 | 1017.2 |
| 20260506184316 | 43 | 270 | 3.0 | 8.0 | 0.00 | 0.00 | 0.00 | 37 | 1017.2 |
| 20260506183316 | 43 | 0 | 6.0 | 8.0 | 0.00 | 0.00 | 0.00 | 37 | 1017.5 |
| 20260506182317 | 43 | 0 | 4.0 | 6.0 | 0.00 | 0.00 | 0.00 | 36 | 1017.5 |
| 20260506181316 | 43 | 0 | 3.0 | 4.0 | 0.00 | 0.00 | 0.00 | 37 | 1017.5 |
| 20260506180316 | 43 | 315 | 6.0 | 10.0 | 0.00 | 0.00 | 0.00 | 36 | 1017.6 |
| 20260506175316 | 43 | 248 | 5.0 | 9.0 | 0.00 | 0.00 | 0.00 | 36 | 1017.6 |
| 20260506174316 | 42 | 293 | 5.0 | 8.0 | 0.00 | 0.00 | 0.00 | 37 | 1017.7 |
| 20260506173317 | 43 | 315 | 4.0 | 8.0 | 0.00 | 0.00 | 0.00 | 36 | 1017.7 |
| 20260506172316 | 43 | 293 | 3.0 | 4.0 | 0.00 | 0.00 | 0.00 | 36 | 1017.9 |
| 20260506171316 | 43 | 338 | 4.0 | 6.0 | 0.00 | 0.00 | 0.00 | 38 | 1018.0 |
| 20260506170337 | 42 | 338 | 4.0 | 5.0 | 0.00 | 0.00 | 0.00 | 39 | 1018.1 |
| 20260506165316 | 41 | 0 | 6.0 | 8.0 | 0.00 | 0.00 | 0.00 | 38 | 1018.1 |
| 20260506164336 | 41 | 315 | 2.0 | 3.0 | 0.00 | 0.00 | 0.00 | 39 | 1018.1 |
| 20260506163356 | 41 | 270 | 2.0 | 4.0 | 0.00 | 0.00 | 0.00 | 37 | 1018.1 |
| 20260506162357 | 41 | 0 | 4.0 | 7.0 | 0.00 | 0.00 | 0.00 | 38 | 1018.1 |
| 20260506161316 | 42 | 293 | 4.0 | 5.0 | 0.00 | 0.00 | 0.00 | 39 | 1018.0 |
| 20260506160316 | 41 | 338 | 4.0 | 5.0 | 0.00 | 0.00 | 0.00 | 39 | 1018.2 |
| 20260506155336 | 41 | 338 | 5.0 | 6.0 | 0.00 | 0.00 | 0.00 | 40 | 1018.3 |
| 20260506154316 | 41 | 338 | 5.0 | 5.0 | 0.00 | 0.00 | 0.00 | 40 | 1018.3 |
| 20260506153336 | 41 | 0 | 6.0 | 8.0 | 0.00 | 0.00 | 0.00 | 38 | 1018.4 |
| 20260506152316 | 40 | 315 | 3.0 | 5.0 | 0.00 | 0.00 | 0.00 | 38 | 1018.3 |
| 20260506151336 | 40 | 293 | 4.0 | 8.0 | 0.00 | 0.00 | 0.00 | 39 | 1018.4 |
| 20260506150316 | 40 | 270 | 6.0 | 8.0 | 0.00 | 0.00 | 0.00 | 38 | 1018.4 |
| 20260506145316 | 40 | 315 | 5.0 | 8.0 | 0.00 | 0.00 | 0.00 | 40 | 1018.5 |
| 20260506144356 | 40 | 0 | 5.0 | 8.0 | 0.00 | 0.00 | 0.00 | 39 | 1018.4 |
| 20260506143316 | 40 | 0 | 5.0 | 9.0 | 0.00 | 0.00 | 0.00 | 42 | 1018.5 |
| 20260506142316 | 39 | 270 | 4.0 | 6.0 | 0.00 | 0.00 | 0.00 | 45 | 1018.5 |
| 20260506141316 | 38 | 293 | 4.0 | 7.0 | 0.00 | 0.00 | 0.00 | 46 | 1018.5 |
| 20260506140316 | 38 | 293 | 6.0 | 11.0 | 0.00 | 0.00 | 0.00 | 46 | 1018.7 |
| 20260506135316 | 37 | 293 | 3.0 | 5.0 | 0.00 | 0.00 | 0.00 | 48 | 1018.7 |
| 20260506134316 | 37 | 293 | 2.0 | 3.0 | 0.00 | 0.00 | 0.00 | 49 | 1018.6 |
| 20260506133316 | 37 | 270 | 5.0 | 7.0 | 0.00 | 0.00 | 0.00 | 49 | 1018.5 |
| 20260506132316 | 37 | 293 | 5.0 | 7.0 | 0.00 | 0.00 | 0.00 | 49 | 1018.4 |
| 20260506131316 | 36 | 293 | 3.0 | 5.0 | 0.00 | 0.00 | 0.00 | 50 | 1018.5 |
| 20260506130315 | 36 | 293 | 3.0 | 4.0 | 0.00 | 0.00 | 0.00 | 50 | 1018.3 |
| 20260506125316 | 36 | 293 | 2.0 | 3.0 | 0.00 | 0.00 | 0.00 | 51 | 1018.1 |
| 20260506124315 | 35 | 293 | 3.0 | 4.0 | 0.00 | 0.00 | 0.00 | 51 | 1018.3 |
| 20260506123316 | 35 | 248 | 1.0 | 2.0 | 0.00 | 0.00 | 0.00 | 51 | 1018.3 |
| 20260506122315 | 35 | 248 | 2.0 | 3.0 | 0.00 | 0.00 | 0.00 | 51 | 1018.4 |
| 20260506121316 | 35 | 270 | 2.0 | 2.0 | 0.00 | 0.00 | 0.00 | 51 | 1018.2 |
| 20260506120315 | 35 | 270 | 2.0 | 2.0 | 0.00 | 0.00 | 0.00 | 51 | 1018.2 |
| 20260506115336 | 35 | 248 | 2.0 | 4.0 | 0.00 | 0.00 | 0.00 | 51 | 1017.8 |
| 20260506114315 | 35 | 293 | 2.0 | 3.0 | 0.00 | 0.00 | 0.00 | 50 | 1017.8 |
| 20260506113316 | 35 | 0.0 | 1.0 | 0.00 | 0.00 | 0.00 | 50 | 1017.6 | |
| 20260506112335 | 35 | 315 | 3.0 | 4.0 | 0.00 | 0.00 | 0.00 | 49 | 1017.6 |
| 20260506111316 | 35 | 315 | 1.0 | 2.0 | 0.00 | 0.00 | 0.00 | 49 | 1017.6 |
| 20260506110315 | 35 | 315 | 3.0 | 5.0 | 0.00 | 0.00 | 0.00 | 49 | 1017.5 |
| 20260506105315 | 35 | 293 | 3.0 | 4.0 | 0.00 | 0.00 | 0.00 | 48 | 1017.4 |
| 20260506104315 | 35 | 315 | 4.0 | 6.0 | 0.00 | 0.00 | 0.00 | 50 | 1017.5 |
| 20260506103315 | 35 | 293 | 2.0 | 4.0 | 0.00 | 0.00 | 0.00 | 50 | 1017.4 |
| 20260506102315 | 35 | 315 | 1.0 | 2.0 | 0.00 | 0.00 | 0.00 | 50 | 1017.3 |
| 20260506101316 | 35 | 315 | 3.0 | 4.0 | 0.00 | 0.00 | 0.00 | 50 | 1017.4 |
| 20260506100336 | 35 | 270 | 2.0 | 2.0 | 0.00 | 0.00 | 0.00 | 50 | 1017.5 |
| 20260506095315 | 35 | 315 | 2.0 | 3.0 | 0.00 | 0.00 | 0.00 | 50 | 1017.5 |
| 20260506094315 | 35 | 293 | 3.0 | 4.0 | 0.00 | 0.00 | 0.00 | 49 | 1017.3 |
| 20260506093337 | 35 | 315 | 2.0 | 3.0 | 0.00 | 0.00 | 0.00 | 49 | 1017.2 |
| 20260506092357 | 36 | 315 | 2.0 | 3.0 | 0.00 | 0.00 | 0.00 | 49 | 1017.2 |
| 20260506091317 | 36 | 315 | 2.0 | 3.0 | 0.00 | 0.00 | 0.00 | 48 | 1017.1 |
| 20260506090317 | 36 | 315 | 1.0 | 2.0 | 0.00 | 0.00 | 0.00 | 48 | 1017.1 |